createdAt,value
2016-04-05T00:00:18.558Z,0
2016-04-05T00:01:18.608Z,0
2016-04-05T00:02:18.641Z,0
2016-04-05T00:03:18.676Z,0
2016-04-05T00:04:18.710Z,0
2016-04-05T00:05:18.760Z,0
2016-04-05T00:06:18.793Z,0
2016-04-05T00:07:18.844Z,0
2016-04-05T00:08:18.861Z,0
2016-04-05T00:09:18.911Z,0
2016-04-05T00:10:18.960Z,0
2016-04-05T00:11:18.994Z,0
2016-04-05T00:12:19.013Z,0
2016-04-05T00:13:19.078Z,0
2016-04-05T00:14:19.252Z,0
2016-04-05T00:15:19.145Z,0
2016-04-05T00:16:19.179Z,0
2016-04-05T00:17:19.214Z,0
2016-04-05T00:18:19.262Z,0
2016-04-05T00:19:19.298Z,0
2016-04-05T00:20:19.347Z,0
2016-04-05T00:21:19.381Z,0
2016-04-05T00:22:19.243Z,0
2016-04-05T00:23:19.433Z,0
2016-04-05T00:24:19.483Z,0
2016-04-05T00:25:19.500Z,0
2016-04-05T00:26:19.534Z,0
2016-04-05T00:27:19.584Z,0
2016-04-05T00:28:19.665Z,0
2016-04-05T00:29:19.856Z,0
2016-04-05T00:30:19.686Z,0
2016-04-05T00:31:19.720Z,0
2016-04-05T00:32:19.770Z,0
2016-04-05T00:33:19.804Z,0
2016-04-05T00:34:19.838Z,0
2016-04-05T00:35:19.888Z,0
2016-04-05T00:36:19.921Z,0
2016-04-05T00:37:19.955Z,0
2016-04-05T00:38:19.988Z,0
2016-04-05T00:39:20.054Z,0
2016-04-05T00:40:20.104Z,0
2016-04-05T00:41:20.091Z,0
2016-04-05T00:42:20.157Z,0
2016-04-05T00:43:20.174Z,0
2016-04-05T00:44:20.115Z,0
2016-04-05T00:45:20.273Z,0
2016-04-05T00:46:20.307Z,0
2016-04-05T00:47:20.341Z,0
2016-04-05T00:48:20.390Z,0
2016-04-05T00:49:20.409Z,0
2016-04-05T00:50:20.458Z,0
2016-04-05T00:51:20.476Z,0
2016-04-05T00:52:20.526Z,0
2016-04-05T00:53:20.560Z,0
2016-04-05T00:54:20.610Z,0
2016-04-05T00:55:20.644Z,0
2016-04-05T00:56:20.662Z,0
2016-04-05T00:57:20.712Z,0
2016-04-05T00:58:20.745Z,0
2016-04-05T00:59:20.827Z,0
2016-04-05T01:00:20.813Z,0
2016-04-05T01:01:20.863Z,0
2016-04-05T01:02:20.897Z,0
2016-04-05T01:03:20.931Z,0
2016-04-05T01:04:20.981Z,0
2016-04-05T01:05:21.000Z,0
2016-04-05T01:06:21.064Z,0
2016-04-05T01:07:21.099Z,0
2016-04-05T01:08:21.116Z,0
2016-04-05T01:09:21.166Z,0
2016-04-05T01:10:21.200Z,0
2016-04-05T01:11:21.234Z,0
2016-04-05T01:12:21.112Z,0
2016-04-05T01:13:21.317Z,0
2016-04-05T01:14:21.335Z,0
2016-04-05T01:15:21.432Z,0
2016-04-05T01:16:21.418Z,0
2016-04-05T01:17:21.468Z,0
2016-04-05T01:18:21.503Z,0
2016-04-05T01:19:21.552Z,0
2016-04-05T01:20:21.571Z,0
2016-04-05T01:21:21.620Z,0
2016-04-05T01:22:21.654Z,0
2016-04-05T01:23:21.687Z,0
2016-04-05T01:24:21.753Z,0
2016-04-05T01:25:21.772Z,0
2016-04-05T01:26:21.789Z,0
2016-04-05T01:27:21.839Z,0
2016-04-05T01:28:21.873Z,0
2016-04-05T01:29:21.922Z,0
2016-04-05T01:30:21.972Z,0
2016-04-05T01:31:21.991Z,0
2016-04-05T01:32:22.041Z,0
2016-04-05T01:33:22.075Z,0
2016-04-05T01:34:22.124Z,0
2016-04-05T01:35:22.174Z,0
2016-04-05T01:36:22.176Z,0
2016-04-05T01:37:22.225Z,0
2016-04-05T01:38:22.260Z,0
2016-04-05T01:39:22.293Z,0
2016-04-05T01:40:22.328Z,0
2016-04-05T01:41:22.361Z,0
2016-04-05T01:42:22.411Z,0
2016-04-05T01:43:22.461Z,0
2016-04-05T01:44:22.479Z,0
2016-04-05T01:45:22.513Z,0
2016-04-05T01:46:22.443Z,0
2016-04-05T01:47:22.623Z,0
2016-04-05T01:48:22.610Z,0
2016-04-05T01:49:23.104Z,0
2016-04-05T01:50:22.701Z,0
2016-04-05T01:51:22.765Z,0
2016-04-05T01:52:22.800Z,0
2016-04-05T01:53:22.803Z,0
2016-04-05T01:54:22.851Z,0
2016-04-05T01:55:22.871Z,0
2016-04-05T01:56:22.920Z,0
2016-04-05T01:57:22.985Z,0
2016-04-05T01:58:22.987Z,0
2016-04-05T01:59:23.022Z,0
2016-04-05T02:00:23.087Z,0
2016-04-05T02:01:23.106Z,0
2016-04-05T02:02:23.155Z,0
2016-04-05T02:03:23.189Z,0
2016-04-05T02:04:23.223Z,0
2016-04-05T02:05:23.257Z,0
2016-04-05T02:06:23.292Z,0
2016-04-05T02:07:23.325Z,0
2016-04-05T02:08:23.364Z,0
2016-04-05T02:09:23.414Z,0
2016-04-05T02:10:23.494Z,0
2016-04-05T02:11:23.481Z,0
2016-04-05T02:12:23.515Z,0
2016-04-05T02:13:23.580Z,0
2016-04-05T02:14:23.599Z,0
2016-04-05T02:15:23.632Z,0
2016-04-05T02:16:23.682Z,0
2016-04-05T02:17:23.700Z,0
2016-04-05T02:18:23.749Z,0
2016-04-05T02:19:23.784Z,0
2016-04-05T02:20:23.818Z,0
2016-04-05T02:21:23.852Z,0
2016-04-05T02:22:23.901Z,0
2016-04-05T02:23:23.935Z,0
2016-04-05T02:24:23.954Z,0
2016-04-05T02:25:24.003Z,0
2016-04-05T02:26:24.053Z,0
2016-04-05T02:27:24.086Z,0
2016-04-05T02:28:24.105Z,0
2016-04-05T02:29:24.154Z,0
2016-04-05T02:30:24.203Z,0
2016-04-05T02:31:24.239Z,0
2016-04-05T02:32:24.272Z,0
2016-04-05T02:33:24.322Z,0
2016-04-05T02:34:24.339Z,0
2016-04-05T02:35:24.389Z,0
2016-04-05T02:36:24.423Z,0
2016-04-05T02:37:24.473Z,0
2016-04-05T02:38:24.491Z,0
2016-04-05T02:39:24.541Z,0
2016-04-05T02:40:24.558Z,0
2016-04-05T02:41:24.593Z,0
2016-04-05T02:42:24.658Z,0
2016-04-05T02:43:24.535Z,0
2016-04-05T02:44:24.711Z,0
2016-04-05T02:45:24.759Z,0
2016-04-05T02:46:24.780Z,0
2016-04-05T02:47:24.801Z,0
2016-04-05T02:48:24.823Z,0
2016-04-05T02:49:24.875Z,0
2016-04-05T02:50:24.865Z,0
2016-04-05T02:51:24.927Z,0
2016-04-05T02:52:24.940Z,0
2016-04-05T02:53:24.985Z,0
2016-04-05T02:54:24.843Z,0
2016-04-05T02:55:25.045Z,0
2016-04-05T02:56:25.093Z,0
2016-04-05T02:57:25.094Z,0
2016-04-05T02:58:25.141Z,0
2016-04-05T02:59:25.189Z,0
2016-04-05T03:00:25.253Z,0
2016-04-05T03:01:25.302Z,0
2016-04-05T03:02:25.288Z,0
2016-04-05T03:03:25.337Z,0
2016-04-05T03:04:25.370Z,0
2016-04-05T03:05:25.419Z,0
2016-04-05T03:06:25.438Z,0
2016-04-05T03:07:25.487Z,0
2016-04-05T03:08:25.505Z,0
2016-04-05T03:09:25.586Z,0
2016-04-05T03:10:25.621Z,0
2016-04-05T03:11:25.670Z,0
2016-04-05T03:12:25.688Z,0
2016-04-05T03:13:25.707Z,0
2016-04-05T03:14:25.741Z,0
2016-04-05T03:15:25.805Z,0
2016-04-05T03:16:25.824Z,0
2016-04-05T03:17:25.874Z,0
2016-04-05T03:18:25.923Z,0
2016-04-05T03:19:25.957Z,0
2016-04-05T03:20:26.006Z,0
2016-04-05T03:21:26.025Z,0
2016-04-05T03:22:26.059Z,0
2016-04-05T03:23:26.093Z,0
2016-04-05T03:24:26.111Z,0
2016-04-05T03:25:26.176Z,0
2016-04-05T03:26:26.195Z,0
2016-04-05T03:27:26.213Z,0
2016-04-05T03:28:26.278Z,0
2016-04-05T03:29:26.297Z,0
2016-04-05T03:30:26.346Z,0
2016-04-05T03:31:26.412Z,0
2016-04-05T03:32:26.431Z,0
2016-04-05T03:33:26.479Z,0
2016-04-05T03:34:26.498Z,0
2016-04-05T03:35:26.548Z,0
2016-04-05T03:36:26.563Z,0
2016-04-05T03:37:26.613Z,0
2016-04-05T03:38:26.661Z,0
2016-04-05T03:39:26.681Z,0
2016-04-05T03:40:26.746Z,0
2016-04-05T03:41:26.764Z,0
2016-04-05T03:42:26.813Z,0
2016-04-05T03:43:26.832Z,0
2016-04-05T03:44:26.866Z,0
2016-04-05T03:45:26.916Z,0
2016-04-05T03:46:26.949Z,0
2016-04-05T03:47:26.968Z,0
2016-04-05T03:48:27.018Z,0
2016-04-05T03:49:27.052Z,0
2016-04-05T03:50:27.101Z,0
2016-04-05T03:51:27.135Z,0
2016-04-05T03:52:27.168Z,0
2016-04-05T03:53:27.202Z,0
2016-04-05T03:54:27.237Z,0
2016-04-05T03:55:27.287Z,0
2016-04-05T03:56:27.321Z,0
2016-04-05T03:57:27.370Z,0
2016-04-05T03:58:27.388Z,0
2016-04-05T03:59:27.437Z,0
2016-04-05T04:00:27.456Z,0
2016-04-05T04:01:27.505Z,0
2016-04-05T04:02:27.539Z,0
2016-04-05T04:03:27.589Z,0
2016-04-05T04:04:27.606Z,0
2016-04-05T04:05:27.656Z,0
2016-04-05T04:06:27.691Z,0
2016-04-05T04:07:27.725Z,0
2016-04-05T04:08:27.775Z,0
2016-04-05T04:09:27.792Z,0
2016-04-05T04:10:27.842Z,0
2016-04-05T04:11:27.876Z,0
2016-04-05T04:12:27.911Z,0
2016-04-05T04:13:27.975Z,0
2016-04-05T04:14:27.978Z,0
2016-04-05T04:15:28.058Z,0
2016-04-05T04:16:28.061Z,0
2016-04-05T04:17:28.111Z,0
2016-04-05T04:18:28.129Z,0
2016-04-05T04:19:28.179Z,0
2016-04-05T04:20:28.213Z,0
2016-04-05T04:21:28.090Z,0
2016-04-05T04:22:28.296Z,0
2016-04-05T04:23:28.329Z,0
2016-04-05T04:24:28.379Z,0
2016-04-05T04:25:28.398Z,0
2016-04-05T04:26:28.448Z,0
2016-04-05T04:27:28.482Z,0
2016-04-05T04:28:28.500Z,0
2016-04-05T04:29:28.393Z,0
2016-04-05T04:30:28.630Z,0
2016-04-05T04:31:28.648Z,0
2016-04-05T04:32:28.714Z,0
2016-04-05T04:33:28.748Z,0
2016-04-05T04:34:28.767Z,0
2016-04-05T04:35:28.769Z,0
2016-04-05T04:36:28.817Z,0
2016-04-05T04:37:28.837Z,0
2016-04-05T04:38:28.886Z,0
2016-04-05T04:39:28.936Z,0
2016-04-05T04:40:28.970Z,0
2016-04-05T04:41:29.019Z,0
2016-04-05T04:42:29.053Z,0
2016-04-05T04:43:29.103Z,0
2016-04-05T04:44:29.105Z,0
2016-04-05T04:45:29.155Z,0
2016-04-05T04:46:29.189Z,0
2016-04-05T04:47:29.223Z,0
2016-04-05T04:48:29.288Z,0
2016-04-05T04:49:29.166Z,0
2016-04-05T04:50:29.340Z,0
2016-04-05T04:51:29.374Z,0
2016-04-05T04:52:29.408Z,0
2016-04-05T04:53:29.442Z,0
2016-04-05T04:54:29.477Z,0
2016-04-05T04:55:29.526Z,0
2016-04-05T04:56:29.543Z,0
2016-04-05T04:57:29.579Z,0
2016-04-05T04:58:29.627Z,0
2016-04-05T04:59:29.662Z,0
2016-04-05T05:00:29.711Z,0
2016-04-05T05:01:29.760Z,0
2016-04-05T05:02:29.779Z,0
2016-04-05T05:03:29.828Z,0
2016-04-05T05:04:29.847Z,0
2016-04-05T05:05:29.896Z,0
2016-04-05T05:06:29.945Z,0
2016-04-05T05:07:29.980Z,0
2016-04-05T05:08:30.029Z,0
2016-04-05T05:09:30.048Z,0
2016-04-05T05:10:30.097Z,0
2016-04-05T05:11:30.116Z,0
2016-04-05T05:12:30.165Z,0
2016-04-05T05:13:30.214Z,0
2016-04-05T05:14:30.233Z,0
2016-04-05T05:15:30.517Z,0
2016-04-05T05:16:30.301Z,0
2016-04-05T05:17:30.350Z,0
2016-04-05T05:18:30.399Z,5
2016-04-05T05:19:30.450Z,5
2016-04-05T05:20:30.452Z,5
2016-04-05T05:21:30.501Z,5
2016-04-05T05:22:30.521Z,5
2016-04-05T05:23:30.554Z,5
2016-04-05T05:24:30.619Z,10
2016-04-05T05:25:30.638Z,10
2016-04-05T05:26:30.671Z,10
2016-04-05T05:27:30.705Z,10
2016-04-05T05:28:30.755Z,10
2016-04-05T05:29:30.790Z,15
2016-04-05T05:30:31.073Z,15
2016-04-05T05:31:30.857Z,15
2016-04-05T05:32:30.906Z,15
2016-04-05T05:33:30.940Z,15
2016-04-05T05:34:30.974Z,15
2016-04-05T05:35:31.023Z,15
2016-04-05T05:36:31.058Z,15
2016-04-05T05:37:31.076Z,15
2016-04-05T05:38:31.125Z,15
2016-04-05T05:39:31.160Z,15
2016-04-05T05:40:31.209Z,15
2016-04-05T05:41:31.242Z,15
2016-04-05T05:42:31.278Z,15
2016-04-05T05:43:31.327Z,15
2016-04-05T05:44:31.345Z,15
2016-04-05T05:45:31.504Z,15
2016-04-05T05:46:31.413Z,15
2016-04-05T05:47:31.447Z,15
2016-04-05T05:48:31.511Z,20
2016-04-05T05:49:31.530Z,20
2016-04-05T05:50:31.579Z,20
2016-04-05T05:51:31.598Z,20
2016-04-05T05:52:31.647Z,20
2016-04-05T05:53:31.525Z,20
2016-04-05T05:54:31.716Z,20
2016-04-05T05:55:31.749Z,20
2016-04-05T05:56:31.799Z,20
2016-04-05T05:57:31.818Z,20
2016-04-05T05:58:31.882Z,20
2016-04-05T05:59:31.901Z,20
2016-04-05T06:00:32.060Z,20
2016-04-05T06:01:31.985Z,20
2016-04-05T06:02:32.003Z,20
2016-04-05T06:03:32.051Z,20
2016-04-05T06:04:32.102Z,25
2016-04-05T06:05:32.120Z,25
2016-04-05T06:06:32.169Z,30
2016-04-05T06:07:32.188Z,35
2016-04-05T06:08:32.269Z,40
2016-04-05T06:09:32.272Z,40
2016-04-05T06:10:32.321Z,40
2016-04-05T06:11:32.355Z,40
2016-04-05T06:12:32.389Z,40
2016-04-05T06:13:32.454Z,40
2016-04-05T06:14:32.456Z,40
2016-04-05T06:15:32.663Z,45
2016-04-05T06:16:32.541Z,50
2016-04-05T06:17:32.574Z,50
2016-04-05T06:18:32.452Z,50
2016-04-05T06:19:32.642Z,50
2016-04-05T06:20:32.691Z,45
2016-04-05T06:21:32.554Z,45
2016-04-05T06:22:32.791Z,40
2016-04-05T06:23:32.810Z,40
2016-04-05T06:24:32.844Z,40
2016-04-05T06:25:32.830Z,40
2016-04-05T06:26:32.692Z,40
2016-04-05T06:27:32.961Z,40
2016-04-05T06:28:32.963Z,40
2016-04-05T06:29:33.028Z,40
2016-04-05T06:30:33.157Z,40
2016-04-05T06:31:33.112Z,40
2016-04-05T06:32:33.130Z,40
2016-04-05T06:33:33.195Z,40
2016-04-05T06:34:33.214Z,40
2016-04-05T06:35:33.263Z,45
2016-04-05T06:36:33.312Z,45
2016-04-05T06:37:33.347Z,45
2016-04-05T06:38:33.365Z,50
2016-04-05T06:39:33.384Z,50
2016-04-05T06:40:33.433Z,50
2016-04-05T06:41:33.483Z,45
2016-04-05T06:42:33.501Z,45
2016-04-05T06:43:33.394Z,50
2016-04-05T06:44:33.584Z,50
2016-04-05T06:45:33.759Z,50
2016-04-05T06:46:33.684Z,55
2016-04-05T06:47:33.702Z,50
2016-04-05T06:48:33.735Z,45
2016-04-05T06:49:33.786Z,45
2016-04-05T06:50:33.835Z,45
2016-04-05T06:51:33.853Z,55
2016-04-05T06:52:33.903Z,55
2016-04-05T06:53:33.921Z,60
2016-04-05T06:54:33.971Z,60
2016-04-05T06:55:34.005Z,60
2016-04-05T06:56:34.054Z,60
2016-04-05T06:57:34.088Z,60
2016-04-05T06:58:34.122Z,60
2016-04-05T06:59:34.140Z,60
2016-04-05T07:00:34.252Z,60
2016-04-05T07:01:34.208Z,55
2016-04-05T07:02:34.273Z,55
2016-04-05T07:03:34.292Z,50
2016-04-05T07:04:34.341Z,50
2016-04-05T07:05:34.375Z,50
2016-04-05T07:06:34.440Z,50
2016-04-05T07:07:34.492Z,50
2016-04-05T07:08:34.525Z,55
2016-04-05T07:09:34.544Z,55
2016-04-05T07:10:34.562Z,60
2016-04-05T07:11:34.596Z,60
2016-04-05T07:12:34.646Z,60
2016-04-05T07:13:34.680Z,60
2016-04-05T07:14:34.714Z,55
2016-04-05T07:15:34.779Z,55
2016-04-05T07:16:34.782Z,55
2016-04-05T07:17:34.831Z,55
2016-04-05T07:18:34.866Z,55
2016-04-05T07:19:34.899Z,60
2016-04-05T07:20:34.949Z,60
2016-04-05T07:21:35.014Z,60
2016-04-05T07:22:35.016Z,60
2016-04-05T07:23:35.066Z,60
2016-04-05T07:24:35.116Z,60
2016-04-05T07:25:35.165Z,60
2016-04-05T07:26:35.215Z,60
2016-04-05T07:27:35.217Z,60
2016-04-05T07:28:35.251Z,65
2016-04-05T07:29:35.285Z,65
2016-04-05T07:30:35.350Z,70
2016-04-05T07:31:35.369Z,70
2016-04-05T07:32:35.403Z,75
2016-04-05T07:33:35.420Z,75
2016-04-05T07:34:35.455Z,75
2016-04-05T07:35:35.536Z,75
2016-04-05T07:36:35.570Z,75
2016-04-05T07:37:35.572Z,75
2016-04-05T07:38:35.607Z,75
2016-04-05T07:39:35.656Z,70
2016-04-05T07:40:35.689Z,65
2016-04-05T07:41:35.739Z,60
2016-04-05T07:42:35.789Z,60
2016-04-05T07:43:35.823Z,65
2016-04-05T07:44:35.857Z,65
2016-04-05T07:45:35.922Z,65
2016-04-05T07:46:35.941Z,70
2016-04-05T07:47:35.958Z,75
2016-04-05T07:48:35.993Z,80
2016-04-05T07:49:36.042Z,90
2016-04-05T07:50:36.108Z,105
2016-04-05T07:51:36.126Z,110
2016-04-05T07:52:36.144Z,110
2016-04-05T07:53:36.225Z,115
2016-04-05T07:54:36.227Z,115
2016-04-05T07:55:36.262Z,120
2016-04-05T07:56:36.327Z,115
2016-04-05T07:57:36.345Z,120
2016-04-05T07:58:36.395Z,115
2016-04-05T07:59:36.413Z,115
2016-04-05T08:00:36.509Z,115
2016-04-05T08:01:36.512Z,115
2016-04-05T08:02:36.545Z,115
2016-04-05T08:03:36.565Z,115
2016-04-05T08:04:36.614Z,115
2016-04-05T08:05:36.664Z,120
2016-04-05T08:06:36.698Z,120
2016-04-05T08:07:36.731Z,125
2016-04-05T08:08:36.797Z,130
2016-04-05T08:09:36.815Z,135
2016-04-05T08:10:36.848Z,140
2016-04-05T08:11:36.883Z,150
2016-04-05T08:12:36.916Z,160
2016-04-05T08:13:36.951Z,160
2016-04-05T08:14:37.000Z,160
2016-04-05T08:15:37.050Z,150
2016-04-05T08:16:37.068Z,150
2016-04-05T08:17:37.117Z,145
2016-04-05T08:18:37.183Z,145
2016-04-05T08:19:37.185Z,145
2016-04-05T08:20:37.236Z,150
2016-04-05T08:21:37.285Z,155
2016-04-05T08:22:37.302Z,150
2016-04-05T08:23:37.352Z,145
2016-04-05T08:24:37.385Z,135
2016-04-05T08:25:37.421Z,125
2016-04-05T08:26:37.454Z,115
2016-04-05T08:27:37.504Z,115
2016-04-05T08:28:37.554Z,110
2016-04-05T08:29:37.571Z,100
2016-04-05T08:30:37.731Z,95
2016-04-05T08:31:37.671Z,100
2016-04-05T08:32:37.689Z,105
2016-04-05T08:33:37.739Z,105
2016-04-05T08:34:37.773Z,105
2016-04-05T08:35:37.823Z,105
2016-04-05T08:36:37.856Z,100
2016-04-05T08:37:37.890Z,100
2016-04-05T08:38:37.923Z,100
2016-04-05T08:39:37.958Z,100
2016-04-05T08:40:38.008Z,105
2016-04-05T08:41:38.056Z,120
2016-04-05T08:42:38.326Z,125
2016-04-05T08:43:38.109Z,125
2016-04-05T08:44:38.158Z,130
2016-04-05T08:45:38.192Z,125
2016-04-05T08:46:38.242Z,130
2016-04-05T08:47:38.277Z,120
2016-04-05T08:48:38.310Z,115
2016-04-05T08:49:38.376Z,105
2016-04-05T08:50:38.394Z,95
2016-04-05T08:51:38.427Z,85
2016-04-05T08:52:38.493Z,80
2016-04-05T08:53:38.510Z,85
2016-04-05T08:54:38.546Z,90
2016-04-05T08:55:38.626Z,110
2016-04-05T08:56:38.613Z,120
2016-04-05T08:57:38.679Z,125
2016-04-05T08:58:38.712Z,120
2016-04-05T08:59:38.762Z,120
2016-04-05T09:00:38.812Z,115
2016-04-05T09:01:38.814Z,110
2016-04-05T09:02:38.895Z,105
2016-04-05T09:03:38.757Z,105
2016-04-05T09:04:38.791Z,115
2016-04-05T09:05:38.981Z,120
2016-04-05T09:06:39.031Z,120
2016-04-05T09:07:39.064Z,120
2016-04-05T09:08:39.114Z,115
2016-04-05T09:09:39.137Z,115
2016-04-05T09:10:39.186Z,105
2016-04-05T09:11:39.206Z,100
2016-04-05T09:12:39.098Z,95
2016-04-05T09:13:39.289Z,85
2016-04-05T09:14:39.338Z,85
2016-04-05T09:15:39.356Z,95
2016-04-05T09:16:39.406Z,100
2016-04-05T09:17:39.440Z,100
2016-04-05T09:18:39.489Z,85
2016-04-05T09:19:39.524Z,65
2016-04-05T09:20:39.574Z,65
2016-04-05T09:21:39.607Z,85
2016-04-05T09:22:39.657Z,95
2016-04-05T09:23:39.707Z,110
2016-04-05T09:24:39.740Z,105
2016-04-05T09:25:39.774Z,80
2016-04-05T09:26:39.792Z,75
2016-04-05T09:27:39.843Z,80
2016-04-05T09:28:39.876Z,80
2016-04-05T09:29:39.910Z,70
2016-04-05T09:30:39.959Z,65
2016-04-05T09:31:39.978Z,65
2016-04-05T09:32:40.043Z,65
2016-04-05T09:33:40.061Z,65
2016-04-05T09:34:40.095Z,70
2016-04-05T09:35:40.176Z,70
2016-04-05T09:36:40.195Z,75
2016-04-05T09:37:40.229Z,75
2016-04-05T09:38:40.278Z,75
2016-04-05T09:39:40.328Z,70
2016-04-05T09:40:40.345Z,65
2016-04-05T09:41:40.395Z,65
2016-04-05T09:42:40.428Z,65
2016-04-05T09:43:40.464Z,65
2016-04-05T09:44:40.497Z,55
2016-04-05T09:45:40.546Z,55
2016-04-05T09:46:40.580Z,50
2016-04-05T09:47:40.646Z,75
2016-04-05T09:48:40.648Z,110
2016-04-05T09:49:40.682Z,125
2016-04-05T09:50:40.733Z,135
2016-04-05T09:51:40.766Z,145
2016-04-05T09:52:40.659Z,145
2016-04-05T09:53:40.881Z,130
2016-04-05T09:54:40.915Z,115
2016-04-05T09:55:40.761Z,100
2016-04-05T09:56:40.951Z,100
2016-04-05T09:57:41.016Z,120
2016-04-05T09:58:41.051Z,125
2016-04-05T09:59:41.068Z,125
2016-04-05T10:00:41.102Z,125
2016-04-05T10:01:41.167Z,120
2016-04-05T10:02:41.187Z,125
2016-04-05T10:03:41.235Z,120
2016-04-05T10:04:41.270Z,125
2016-04-05T10:05:41.365Z,130
2016-04-05T10:06:41.353Z,125
2016-04-05T10:07:41.386Z,115
2016-04-05T10:08:41.420Z,115
2016-04-05T10:09:41.486Z,115
2016-04-05T10:10:41.503Z,120
2016-04-05T10:11:41.553Z,130
2016-04-05T10:12:41.588Z,135
2016-04-05T10:13:41.622Z,145
2016-04-05T10:14:41.672Z,140
2016-04-05T10:15:41.706Z,140
2016-04-05T10:16:41.739Z,135
2016-04-05T10:17:41.773Z,130
2016-04-05T10:18:41.823Z,125
2016-04-05T10:19:41.872Z,120
2016-04-05T10:20:41.906Z,125
2016-04-05T10:21:41.924Z,130
2016-04-05T10:22:41.974Z,145
2016-04-05T10:23:42.055Z,160
2016-04-05T10:24:42.088Z,175
2016-04-05T10:25:42.092Z,210
2016-04-05T10:26:42.204Z,230
2016-04-05T10:27:42.191Z,235
2016-04-05T10:28:42.210Z,245
2016-04-05T10:29:42.259Z,250
2016-04-05T10:30:42.293Z,230
2016-04-05T10:31:42.342Z,215
2016-04-05T10:32:42.376Z,240
2016-04-05T10:33:42.457Z,235
2016-04-05T10:34:42.476Z,245
2016-04-05T10:35:42.353Z,215
2016-04-05T10:36:42.528Z,220
2016-04-05T10:37:42.545Z,220
2016-04-05T10:38:42.595Z,150
2016-04-05T10:39:42.629Z,120
2016-04-05T10:40:42.678Z,85
2016-04-05T10:41:42.712Z,60
2016-04-05T10:42:42.747Z,50
2016-04-05T10:43:42.811Z,45
2016-04-05T10:44:42.831Z,50
2016-04-05T10:45:42.880Z,60
2016-04-05T10:46:43.258Z,50
2016-04-05T10:47:42.947Z,55
2016-04-05T10:48:42.997Z,65
2016-04-05T10:49:43.047Z,70
2016-04-05T10:50:43.080Z,60
2016-04-05T10:51:43.130Z,60
2016-04-05T10:52:43.149Z,60
2016-04-05T10:53:43.198Z,50
2016-04-05T10:54:43.232Z,50
2016-04-05T10:55:43.281Z,50
2016-04-05T10:56:43.347Z,50
2016-04-05T10:57:43.349Z,70
2016-04-05T10:58:43.383Z,75
2016-04-05T10:59:43.418Z,75
2016-04-05T11:00:43.608Z,75
2016-04-05T11:01:43.516Z,75
2016-04-05T11:02:43.535Z,75
2016-04-05T11:03:43.584Z,80
2016-04-05T11:04:43.619Z,85
2016-04-05T11:05:43.668Z,90
2016-04-05T11:06:43.702Z,95
2016-04-05T11:07:43.442Z,85
2016-04-05T11:08:43.783Z,75
2016-04-05T11:09:43.802Z,70
2016-04-05T11:10:43.851Z,65
2016-04-05T11:11:43.901Z,70
2016-04-05T11:12:43.919Z,70
2016-04-05T11:13:43.984Z,70
2016-04-05T11:14:44.003Z,75
2016-04-05T11:15:44.037Z,75
2016-04-05T11:16:44.259Z,75
2016-04-05T11:17:44.120Z,75
2016-04-05T11:18:44.154Z,75
2016-04-05T11:19:44.189Z,80
2016-04-05T11:20:44.222Z,80
2016-04-05T11:21:44.272Z,80
2016-04-05T11:22:44.290Z,85
2016-04-05T11:23:44.356Z,80
2016-04-05T11:24:44.389Z,85
2016-04-05T11:25:44.422Z,95
2016-04-05T11:26:45.097Z,95
2016-04-05T11:27:44.491Z,110
2016-04-05T11:28:44.369Z,110
2016-04-05T11:29:44.575Z,120
2016-04-05T11:30:44.608Z,125
2016-04-05T11:31:44.658Z,120
2016-04-05T11:32:44.692Z,125
2016-04-05T11:33:44.726Z,130
2016-04-05T11:34:44.760Z,130
2016-04-05T11:35:44.810Z,130
2016-04-05T11:36:44.702Z,115
2016-04-05T11:37:44.908Z,110
2016-04-05T11:38:44.942Z,115
2016-04-05T11:39:44.976Z,125
2016-04-05T11:40:45.010Z,130
2016-04-05T11:41:45.028Z,130
2016-04-05T11:42:45.078Z,130
2016-04-05T11:43:45.111Z,130
2016-04-05T11:44:45.161Z,130
2016-04-05T11:45:45.211Z,130
2016-04-05T11:46:45.088Z,130
2016-04-05T11:47:45.279Z,130
2016-04-05T11:48:45.297Z,145
2016-04-05T11:49:45.362Z,140
2016-04-05T11:50:45.396Z,140
2016-04-05T11:51:45.428Z,130
2016-04-05T11:52:45.454Z,105
2016-04-05T11:53:45.494Z,110
2016-04-05T11:54:45.535Z,90
2016-04-05T11:55:45.560Z,90
2016-04-05T11:56:45.586Z,105
2016-04-05T11:57:45.633Z,115
2016-04-05T11:58:45.663Z,140
2016-04-05T11:59:45.662Z,145
2016-04-05T12:00:45.726Z,145
2016-04-05T12:01:45.756Z,155
2016-04-05T12:02:45.805Z,165
2016-04-05T12:03:45.823Z,140
2016-04-05T12:04:45.871Z,165
2016-04-05T12:05:45.903Z,175
2016-04-05T12:06:45.968Z,175
2016-04-05T12:07:45.970Z,175
2016-04-05T12:08:48.972Z,175
2016-04-05T12:09:46.052Z,180
2016-04-05T12:10:46.086Z,195
2016-04-05T12:11:46.120Z,180
2016-04-05T12:12:46.185Z,185
2016-04-05T12:13:46.219Z,185
2016-04-05T12:14:46.253Z,155
2016-04-05T12:15:46.287Z,175
2016-04-05T12:16:46.336Z,190
2016-04-05T12:17:46.370Z,190
2016-04-05T12:18:46.405Z,200
2016-04-05T12:19:46.439Z,195
2016-04-05T12:20:46.488Z,180
2016-04-05T12:21:46.522Z,185
2016-04-05T12:22:46.399Z,170
2016-04-05T12:23:46.605Z,190
2016-04-05T12:24:46.655Z,195
2016-04-05T12:25:46.674Z,180
2016-04-05T12:26:46.707Z,170
2016-04-05T12:27:46.757Z,155
2016-04-05T12:28:46.790Z,160
2016-04-05T12:29:46.841Z,145
2016-04-05T12:30:46.874Z,125
2016-04-05T12:31:47.018Z,100
2016-04-05T12:32:46.957Z,85
2016-04-05T12:33:47.007Z,70
2016-04-05T12:34:47.056Z,65
2016-04-05T12:35:47.075Z,70
2016-04-05T12:36:47.109Z,70
2016-04-05T12:37:47.159Z,70
2016-04-05T12:38:47.209Z,70
2016-04-05T12:39:47.243Z,65
2016-04-05T12:40:47.276Z,60
2016-04-05T12:41:47.309Z,60
2016-04-05T12:42:47.344Z,55
2016-04-05T12:43:47.378Z,55
2016-04-05T12:44:47.428Z,55
2016-04-05T12:45:47.462Z,55
2016-04-05T12:46:48.058Z,60
2016-04-05T12:47:47.544Z,65
2016-04-05T12:48:47.579Z,70
2016-04-05T12:49:47.629Z,70
2016-04-05T12:50:47.647Z,80
2016-04-05T12:51:47.697Z,90
2016-04-05T12:52:47.731Z,100
2016-04-05T12:53:47.764Z,105
2016-04-05T12:54:47.798Z,110
2016-04-05T12:55:47.863Z,115
2016-04-05T12:56:47.882Z,120
2016-04-05T12:57:47.930Z,120
2016-04-05T12:58:47.950Z,120
2016-04-05T12:59:47.999Z,110
2016-04-05T13:00:48.017Z,95
2016-04-05T13:01:47.941Z,85
2016-04-05T13:02:48.273Z,65
2016-04-05T13:03:48.150Z,65
2016-04-05T13:04:48.184Z,65
2016-04-05T13:05:48.218Z,65
2016-04-05T13:06:48.267Z,90
2016-04-05T13:07:48.317Z,95
2016-04-05T13:08:48.336Z,105
2016-04-05T13:09:48.385Z,125
2016-04-05T13:10:48.420Z,130
2016-04-05T13:11:48.500Z,120
2016-04-05T13:12:48.503Z,125
2016-04-05T13:13:48.537Z,115
2016-04-05T13:14:48.571Z,100
2016-04-05T13:15:48.620Z,85
2016-04-05T13:16:48.372Z,100
2016-04-05T13:17:48.689Z,130
2016-04-05T13:18:48.737Z,135
2016-04-05T13:19:48.756Z,140
2016-04-05T13:20:48.805Z,145
2016-04-05T13:21:48.855Z,140
2016-04-05T13:22:48.873Z,140
2016-04-05T13:23:48.923Z,145
2016-04-05T13:24:48.957Z,150
2016-04-05T13:25:48.991Z,145
2016-04-05T13:26:49.040Z,135
2016-04-05T13:27:49.091Z,125
2016-04-05T13:28:49.108Z,130
2016-04-05T13:29:49.141Z,130
2016-04-05T13:30:49.144Z,130
2016-04-05T13:31:49.241Z,130
2016-04-05T13:32:49.244Z,130
2016-04-05T13:33:49.278Z,130
2016-04-05T13:34:49.327Z,120
2016-04-05T13:35:49.393Z,110
2016-04-05T13:36:49.458Z,105
2016-04-05T13:37:49.445Z,100
2016-04-05T13:38:49.479Z,90
2016-04-05T13:39:49.512Z,80
2016-04-05T13:40:49.547Z,90
2016-04-05T13:41:49.596Z,90
2016-04-05T13:42:49.631Z,80
2016-04-05T13:43:49.664Z,85
2016-04-05T13:44:49.745Z,95
2016-04-05T13:45:49.607Z,95
2016-04-05T13:46:50.001Z,95
2016-04-05T13:47:49.848Z,90
2016-04-05T13:48:49.865Z,115
2016-04-05T13:49:49.900Z,120
2016-04-05T13:50:50.402Z,115
2016-04-05T13:51:49.967Z,115
2016-04-05T13:52:50.016Z,105
2016-04-05T13:53:50.051Z,105
2016-04-05T13:54:50.084Z,115
2016-04-05T13:55:50.119Z,115
2016-04-05T13:56:50.152Z,115
2016-04-05T13:57:50.202Z,110
2016-04-05T13:58:50.720Z,100
2016-04-05T13:59:50.269Z,95
2016-04-05T14:00:50.304Z,90
2016-04-05T14:01:50.400Z,85
2016-04-05T14:02:50.372Z,90
2016-04-05T14:03:50.421Z,85
2016-04-05T14:04:50.471Z,80
2016-04-05T14:05:50.488Z,75
2016-04-05T14:06:50.538Z,75
2016-04-05T14:07:50.573Z,75
2016-04-05T14:08:50.607Z,75
2016-04-05T14:09:50.656Z,70
2016-04-05T14:10:50.534Z,75
2016-04-05T14:11:50.724Z,75
2016-04-05T14:12:50.773Z,70
2016-04-05T14:13:50.807Z,65
2016-04-05T14:14:50.825Z,65
2016-04-05T14:15:50.876Z,70
2016-04-05T14:16:50.909Z,75
2016-04-05T14:17:50.943Z,75
2016-04-05T14:18:50.992Z,75